Chazy Landing, New York
Current Conditions -  °F | °C
As of 2:53 AM on Sunday 23 Nov 2014 (Local Time) from KPBG Reporting Station
Light Rain Light Rain  
Wind Chill: 32°   Ceiling: 6000
Heat Index: 37°   Visibility: 10mi
Dew Point: 33°   Wind: 6mph
Humidity: 86%   Direction: 150°SSE
Pressure: 29.95"   Gusts: NA
Location:  44.8906°N, 73.4663°W
Report Text: KPBG 230753Z AUTO 15005KT 10SM -RA OVC060 03/01 A2995 RMK AO2 RAB0658E19B37 SLP144 P0000 T00280006
Loading
Personal Weather Stations






























Interactive Weather Map New forecast layout! Learn more

10-Day Weather Forecast

Advertisements
Track Severe Weather on mobile